createdAt,value
2018-01-11T00:00:36.113Z,15.07
2018-01-11T00:03:03.597Z,15.47
2018-01-11T00:05:31.834Z,15.57
2018-01-11T00:07:59.322Z,12.37
2018-01-11T00:10:26.793Z,13.17
2018-01-11T00:12:55.031Z,15.07
2018-01-11T00:15:22.504Z,15.53
2018-01-11T00:17:49.980Z,15.03
2018-01-11T00:20:17.458Z,15.03
2018-01-11T00:22:45.688Z,17.77
2018-01-11T00:25:13.182Z,20.63
2018-01-11T00:27:41.417Z,134.83
2018-01-11T00:30:08.897Z,22.90
2018-01-11T00:32:36.360Z,19.73
2018-01-11T00:35:03.844Z,21.43
2018-01-11T00:37:31.342Z,18.37
2018-01-11T00:39:58.813Z,15.77
2018-01-11T00:42:26.293Z,41.27
2018-01-11T00:44:53.760Z,81.10
2018-01-11T00:47:22.009Z,26.97
2018-01-11T00:49:49.482Z,19.90
2018-01-11T00:52:16.969Z,22.57
2018-01-11T00:54:45.425Z,19.47
2018-01-11T00:57:13.141Z,20.57
2018-01-11T00:59:40.617Z,20.60
2018-01-11T01:02:08.092Z,21.07
2018-01-11T01:04:35.568Z,23.97
2018-01-11T01:07:03.049Z,28.00
2018-01-11T01:09:31.288Z,20.37
2018-01-11T01:11:58.760Z,21.00
2018-01-11T01:14:26.241Z,19.97
2018-01-11T01:16:54.476Z,20.23
2018-01-11T01:19:21.957Z,24.37
2018-01-11T01:21:49.429Z,22.10
2018-01-11T01:24:17.669Z,23.33
2018-01-11T01:26:45.136Z,25.00
2018-01-11T01:29:12.640Z,20.07
2018-01-11T01:31:40.101Z,22.13
2018-01-11T01:34:07.593Z,30.90
2018-01-11T01:36:35.072Z,37.13
2018-01-11T01:39:02.544Z,35.80
2018-01-11T01:41:30.793Z,36.30
2018-01-11T01:43:58.261Z,37.67
2018-01-11T01:46:25.741Z,28.53
2018-01-11T01:48:53.980Z,29.77
2018-01-11T01:51:21.461Z,28.33
2018-01-11T01:53:48.937Z,31.47
2018-01-11T01:56:17.180Z,31.13
2018-01-11T01:58:44.657Z,28.37
2018-01-11T02:01:12.141Z,29.53
2018-01-11T02:03:40.373Z,27.90
2018-01-11T02:06:07.837Z,29.07
2018-01-11T02:08:35.329Z,29.47
2018-01-11T02:11:03.569Z,26.00
2018-01-11T02:13:31.048Z,28.27
2018-01-11T02:15:58.512Z,29.37
2018-01-11T02:18:26.761Z,28.07
2018-01-11T02:20:54.228Z,27.20
2018-01-11T02:23:21.955Z,28.27
2018-01-11T02:25:49.424Z,25.07
2018-01-11T02:28:17.673Z,30.83
2018-01-11T02:30:45.141Z,25.03
2018-01-11T02:33:12.625Z,26.80
2018-01-11T02:35:40.093Z,27.17
2018-01-11T02:38:07.569Z,25.77
2018-01-11T02:40:35.048Z,27.83
2018-01-11T02:43:03.282Z,29.20
2018-01-11T02:45:30.772Z,30.27
2018-01-11T02:47:59.019Z,30.77
2018-01-11T02:50:26.499Z,27.30
2018-01-11T02:52:54.214Z,28.27
2018-01-11T02:55:21.693Z,29.53
2018-01-11T02:57:49.305Z,36.63
2018-01-11T03:00:22.329Z,29.03
2018-01-11T03:02:49.797Z,28.60
2018-01-11T03:05:17.277Z,27.63
2018-01-11T03:07:44.746Z,27.50
2018-01-11T03:10:12.217Z,29.37
2018-01-11T03:12:40.470Z,31.23
2018-01-11T03:15:07.932Z,27.53
2018-01-11T03:17:35.414Z,33.20
2018-01-11T03:20:03.649Z,28.40
2018-01-11T03:22:31.129Z,31.90
2018-01-11T03:24:58.612Z,29.50
2018-01-11T03:27:26.852Z,29.33
2018-01-11T03:29:54.324Z,31.17
2018-01-11T03:32:21.803Z,29.57
2018-01-11T03:34:50.040Z,30.57
2018-01-11T03:37:17.522Z,30.10
2018-01-11T03:40:04.021Z,33.60
2018-01-11T03:42:31.492Z,33.57
2018-01-11T03:44:59.733Z,35.47
2018-01-11T03:47:27.220Z,29.90
2018-01-11T03:49:55.499Z,34.37
2018-01-11T03:52:23.750Z,33.93
2018-01-11T03:54:51.214Z,32.20
2018-01-11T03:57:18.683Z,33.13
2018-01-11T03:59:46.165Z,32.00
2018-01-11T04:02:14.672Z,31.20
2018-01-11T04:04:42.161Z,29.80
2018-01-11T04:07:09.628Z,32.63
2018-01-11T04:09:37.109Z,37.30
2018-01-11T04:12:05.353Z,31.47
2018-01-11T04:14:32.840Z,38.17
2018-01-11T04:17:01.368Z,33.07
2018-01-11T04:19:28.852Z,33.10
2018-01-11T04:21:56.324Z,33.30
2018-01-11T04:24:23.796Z,33.13
2018-01-11T04:26:51.269Z,34.33
2018-01-11T04:29:19.513Z,37.33
2018-01-11T04:31:46.988Z,37.67
2018-01-11T04:34:14.452Z,33.93
2018-01-11T04:36:42.700Z,37.50
2018-01-11T04:39:10.168Z,38.17
2018-01-11T04:41:37.648Z,42.67
2018-01-11T04:44:05.920Z,38.87
2018-01-11T04:46:34.173Z,37.07
2018-01-11T04:49:01.648Z,47.10
2018-01-11T04:51:29.137Z,44.27
2018-01-11T04:53:56.601Z,43.17
2018-01-11T04:56:24.380Z,47.57
2018-01-11T04:58:51.857Z,46.03
2018-01-11T05:01:19.324Z,47.67
2018-01-11T05:03:46.806Z,42.90
2018-01-11T05:06:14.276Z,42.17
2018-01-11T05:08:42.525Z,50.93
2018-01-11T05:11:10.000Z,52.03
2018-01-11T05:13:37.476Z,56.70
2018-01-11T05:16:05.721Z,66.53
2018-01-11T05:18:33.211Z,49.40
2018-01-11T05:21:01.440Z,38.67
2018-01-11T05:23:29.689Z,42.00
2018-01-11T05:25:57.160Z,37.23
2018-01-11T05:28:24.628Z,48.77
2018-01-11T05:30:52.372Z,61.87
2018-01-11T05:33:19.848Z,52.97
2018-01-11T05:35:47.328Z,43.57
2018-01-11T05:38:14.801Z,45.20
2018-01-11T05:40:42.276Z,41.63
2018-01-11T05:43:10.512Z,44.73
2018-01-11T05:45:37.988Z,39.47
2018-01-11T05:48:05.465Z,37.13
2018-01-11T05:50:33.713Z,32.77
2018-01-11T05:53:01.185Z,31.97
2018-01-11T05:55:28.672Z,34.80
2018-01-11T05:57:56.146Z,32.30
2018-01-11T06:00:23.622Z,35.47
2018-01-11T06:02:51.100Z,30.97
2018-01-11T06:05:18.574Z,34.10
2018-01-11T06:07:46.057Z,36.00
2018-01-11T06:10:14.304Z,35.37
2018-01-11T06:12:41.793Z,34.40
2018-01-11T06:15:10.029Z,39.20
2018-01-11T06:17:37.504Z,31.60
2018-01-11T06:20:04.973Z,35.80
2018-01-11T06:22:33.220Z,35.10
2018-01-11T06:25:00.692Z,34.90
2018-01-11T06:27:28.156Z,29.70
2018-01-11T06:29:55.643Z,32.10
2018-01-11T06:32:23.113Z,35.23
2018-01-11T06:34:50.888Z,29.70
2018-01-11T06:37:18.352Z,36.57
2018-01-11T06:39:45.833Z,33.20
2018-01-11T06:42:13.300Z,33.80
2018-01-11T06:44:40.781Z,39.87
2018-01-11T06:47:09.020Z,33.30
2018-01-11T06:50:00.885Z,34.37
2018-01-11T06:52:29.128Z,35.07
2018-01-11T06:54:56.600Z,33.77
2018-01-11T06:57:24.072Z,34.60
2018-01-11T06:59:51.548Z,31.47
2018-01-11T07:02:19.785Z,29.20
2018-01-11T07:04:47.259Z,32.20
2018-01-11T07:07:14.737Z,34.13
2018-01-11T07:09:42.973Z,33.60
2018-01-11T07:12:10.467Z,31.67
2018-01-11T07:14:38.696Z,32.37
2018-01-11T07:17:06.184Z,32.73
2018-01-11T07:19:33.687Z,37.63
2018-01-11T07:22:01.909Z,31.50
2018-01-11T07:24:29.385Z,29.73
2018-01-11T07:26:56.866Z,31.53
2018-01-11T07:29:25.105Z,31.47
2018-01-11T07:31:52.593Z,30.97
2018-01-11T07:34:20.833Z,29.67
2018-01-11T07:36:48.308Z,30.93
2018-01-11T07:39:16.556Z,30.50
2018-01-11T07:41:44.066Z,30.87
2018-01-11T07:44:12.314Z,34.90
2018-01-11T07:46:39.781Z,39.47
2018-01-11T07:49:07.261Z,41.37
2018-01-11T07:51:35.497Z,38.17
2018-01-11T07:54:02.972Z,44.73
2018-01-11T07:56:30.449Z,48.23
2018-01-11T07:58:58.694Z,50.90
2018-01-11T08:01:26.157Z,51.50
2018-01-11T08:03:53.628Z,72.00
2018-01-11T08:06:21.877Z,64.70
2018-01-11T08:08:49.349Z,60.10
2018-01-11T08:11:16.837Z,51.47
2018-01-11T08:13:45.072Z,58.90
2018-01-11T08:16:12.548Z,54.87
2018-01-11T08:18:40.025Z,43.67
2018-01-11T08:21:08.279Z,41.10
2018-01-11T08:23:35.744Z,38.87
2018-01-11T08:26:03.216Z,43.77
2018-01-11T08:28:31.457Z,38.63
2018-01-11T08:30:58.954Z,33.67
2018-01-11T08:33:27.190Z,39.43
2018-01-11T08:35:54.681Z,34.23
2018-01-11T08:38:22.923Z,30.03
2018-01-11T08:40:50.397Z,31.70
2018-01-11T08:43:17.876Z,27.60
2018-01-11T08:45:46.113Z,28.53
2018-01-11T08:48:13.594Z,29.37
2018-01-11T08:50:41.065Z,29.17
2018-01-11T08:53:08.541Z,30.77
2018-01-11T08:55:36.013Z,28.17
2018-01-11T08:58:03.525Z,40.63
2018-01-11T09:00:31.013Z,28.37
2018-01-11T09:02:59.250Z,28.87
2018-01-11T09:05:26.724Z,31.03
2018-01-11T09:07:54.196Z,30.27
2018-01-11T09:10:22.453Z,28.10
2018-01-11T09:12:49.931Z,31.33
2018-01-11T09:15:18.180Z,35.13
2018-01-11T09:17:45.647Z,36.30
2018-01-11T09:20:13.130Z,28.47
2018-01-11T09:22:41.369Z,29.80
2018-01-11T09:25:08.835Z,32.90
2018-01-11T09:27:36.308Z,31.40
2018-01-11T09:30:03.778Z,27.77
2018-01-11T09:32:32.056Z,29.23
2018-01-11T09:35:00.290Z,27.63
2018-01-11T09:37:27.764Z,26.73
2018-01-11T09:39:55.241Z,26.57
2018-01-11T09:42:22.717Z,25.37
2018-01-11T09:44:50.949Z,27.53
2018-01-11T09:47:18.441Z,25.40
2018-01-11T09:49:46.666Z,25.03
2018-01-11T09:52:14.133Z,24.83
2018-01-11T09:54:41.603Z,26.33
2018-01-11T09:57:09.077Z,27.43
2018-01-11T09:59:36.561Z,23.63
2018-01-11T10:02:04.041Z,26.43
2018-01-11T10:04:31.520Z,28.23
2018-01-11T10:06:58.981Z,22.13
2018-01-11T10:15:34.301Z,21.50
2018-01-11T10:18:01.769Z,22.13
2018-01-11T10:20:30.014Z,20.67
2018-01-11T10:22:57.492Z,21.13
2018-01-11T10:25:24.972Z,21.20
2018-01-11T10:27:53.208Z,23.87
2018-01-11T10:30:20.727Z,17.93
2018-01-11T10:32:48.948Z,24.43
2018-01-11T10:35:16.416Z,18.80
2018-01-11T10:37:43.889Z,21.30
2018-01-11T10:40:12.124Z,19.37
2018-01-11T10:42:39.597Z,21.97
2018-01-11T10:45:07.075Z,24.93
2018-01-11T10:47:34.553Z,21.00
2018-01-11T10:50:02.055Z,22.67
2018-01-11T10:52:29.505Z,23.10
2018-01-11T10:54:56.980Z,24.07
2018-01-11T10:57:24.457Z,22.67
2018-01-11T10:59:52.994Z,21.40
2018-01-11T11:02:26.214Z,24.33
2018-01-11T11:04:53.683Z,21.10
2018-01-11T11:07:21.152Z,25.70
2018-01-11T11:09:48.624Z,24.73
2018-01-11T11:12:16.857Z,22.90
2018-01-11T11:14:44.340Z,19.20
2018-01-11T11:17:11.805Z,23.80
2018-01-11T11:19:39.280Z,19.50
2018-01-11T11:22:07.514Z,20.83
2018-01-11T11:24:35.014Z,18.83
2018-01-11T11:27:03.245Z,16.93
2018-01-11T11:29:30.716Z,16.97
2018-01-11T11:31:58.959Z,19.80
2018-01-11T11:34:26.426Z,16.43
2018-01-11T11:36:53.915Z,21.70
2018-01-11T11:39:21.386Z,22.17
2018-01-11T11:41:48.852Z,20.33
2018-01-11T11:44:17.086Z,22.67
2018-01-11T11:46:44.781Z,20.00
2018-01-11T11:49:12.245Z,14.70
2018-01-11T11:51:40.489Z,15.17
2018-01-11T11:54:07.957Z,15.70
2018-01-11T11:56:35.437Z,13.40
2018-01-11T11:59:02.893Z,11.97
2018-01-11T12:01:31.149Z,13.87
2018-01-11T12:03:58.621Z,13.73
2018-01-11T12:06:26.088Z,17.33
2018-01-11T12:08:54.613Z,19.43
2018-01-11T12:11:22.084Z,15.77
2018-01-11T12:13:49.558Z,17.70
2018-01-11T12:16:17.021Z,14.67
2018-01-11T12:18:44.498Z,15.10
2018-01-11T12:21:11.968Z,16.87
2018-01-11T12:23:40.204Z,14.20
2018-01-11T12:26:07.677Z,15.63
2018-01-11T12:28:35.153Z,18.17
2018-01-11T12:31:02.620Z,21.90
2018-01-11T12:33:30.857Z,16.07
2018-01-11T12:35:58.336Z,15.50
2018-01-11T12:38:25.805Z,14.90
2018-01-11T12:40:53.613Z,13.93
2018-01-11T12:43:21.081Z,12.07
2018-01-11T12:45:48.560Z,13.87
2018-01-11T12:48:16.026Z,14.63
2018-01-11T12:50:43.489Z,15.43
2018-01-11T12:53:10.969Z,16.87
2018-01-11T12:55:39.201Z,13.87
2018-01-11T12:58:06.680Z,16.70
2018-01-11T13:00:34.141Z,15.33
2018-01-11T13:03:01.617Z,18.23
2018-01-11T13:05:29.852Z,17.73
2018-01-11T13:07:57.334Z,16.23
2018-01-11T13:10:24.800Z,17.80
2018-01-11T13:12:52.272Z,16.43
2018-01-11T13:15:20.505Z,18.53
2018-01-11T13:17:47.988Z,18.43
2018-01-11T13:20:15.448Z,18.53
2018-01-11T13:22:43.161Z,16.07
2018-01-11T13:25:10.641Z,20.30
2018-01-11T13:27:38.108Z,20.57
2018-01-11T13:30:05.585Z,21.07
2018-01-11T13:32:33.058Z,21.27
2018-01-11T13:35:01.292Z,19.80
2018-01-11T13:37:28.766Z,19.90
2018-01-11T13:39:56.245Z,20.87
2018-01-11T13:42:23.716Z,21.90
2018-01-11T13:44:51.956Z,19.37
2018-01-11T13:47:19.416Z,19.40
2018-01-11T13:55:39.322Z,23.90
2018-01-11T13:58:06.790Z,24.13
2018-01-11T14:00:34.286Z,22.77
2018-01-11T14:03:02.533Z,23.47
2018-01-11T14:05:30.018Z,21.77
2018-01-11T14:07:58.265Z,19.17
2018-01-11T14:10:25.728Z,23.97
2018-01-11T14:12:53.213Z,22.07
2018-01-11T14:15:21.441Z,20.93
2018-01-11T14:17:49.692Z,19.67
2018-01-11T14:20:17.156Z,19.20
2018-01-11T14:22:44.924Z,21.40
2018-01-11T14:25:12.392Z,21.47
2018-01-11T14:27:39.874Z,22.73
2018-01-11T14:30:07.346Z,22.70
2018-01-11T14:32:34.808Z,25.60
2018-01-11T14:35:02.285Z,25.23
2018-01-11T14:37:30.524Z,23.87
2018-01-11T14:39:58.256Z,22.03
2018-01-11T14:42:25.725Z,22.83
2018-01-11T14:44:53.205Z,22.63
2018-01-11T14:47:20.676Z,24.47
2018-01-11T14:49:48.165Z,26.47
2018-01-11T14:52:16.397Z,24.93
2018-01-11T14:54:43.877Z,27.27
2018-01-11T14:57:11.729Z,25.83
2018-01-11T14:59:39.237Z,26.70
2018-01-11T15:02:07.453Z,30.80
2018-01-11T15:04:34.937Z,26.80
2018-01-11T15:07:02.400Z,30.57
2018-01-11T15:09:29.871Z,28.77
2018-01-11T15:11:58.113Z,28.57
2018-01-11T15:14:25.581Z,27.13
2018-01-11T15:16:53.057Z,30.63
2018-01-11T15:19:21.292Z,33.27
2018-01-11T15:21:48.771Z,28.33
2018-01-11T15:24:16.241Z,27.73
2018-01-11T15:26:43.720Z,29.30
2018-01-11T15:29:11.258Z,28.57
2018-01-11T15:31:39.546Z,27.20
2018-01-11T15:34:07.785Z,26.90
2018-01-11T15:36:35.303Z,25.70
2018-01-11T15:39:03.005Z,26.83
2018-01-11T15:41:30.744Z,23.73
2018-01-11T15:43:58.220Z,28.93
2018-01-11T15:46:25.696Z,27.47
2018-01-11T15:48:53.181Z,27.13
2018-01-11T15:51:21.426Z,28.73
2018-01-11T15:53:48.900Z,27.90
2018-01-11T15:56:16.365Z,29.43
2018-01-11T15:58:43.848Z,29.97
2018-01-11T16:01:12.106Z,32.70
2018-01-11T16:03:39.813Z,32.73
2018-01-11T16:06:07.285Z,42.07
2018-01-11T16:08:34.773Z,29.97
2018-01-11T16:11:02.241Z,36.10
2018-01-11T16:13:30.768Z,32.23
2018-01-11T16:15:58.262Z,31.10
2018-01-11T16:18:25.732Z,30.57
2018-01-11T16:20:53.213Z,33.97
2018-01-11T16:23:21.728Z,29.27
2018-01-11T16:25:49.212Z,33.23
2018-01-11T16:28:16.672Z,33.27
2018-01-11T16:30:44.152Z,34.57
2018-01-11T16:33:12.401Z,37.60
2018-01-11T16:35:39.881Z,34.93
2018-01-11T16:38:07.352Z,40.37
2018-01-11T16:40:35.605Z,36.47
2018-01-11T16:43:03.088Z,40.50
2018-01-11T16:45:31.324Z,36.87
2018-01-11T16:47:58.838Z,35.87
2018-01-11T16:50:26.288Z,39.23
2018-01-11T16:52:54.532Z,40.73
2018-01-11T16:55:22.004Z,38.60
2018-01-11T16:57:49.485Z,42.10
2018-01-11T17:00:17.728Z,43.27
2018-01-11T17:02:45.212Z,39.10
2018-01-11T17:05:13.449Z,39.57
2018-01-11T17:07:41.604Z,43.20
2018-01-11T17:10:09.080Z,44.47
2018-01-11T17:12:36.556Z,45.57
2018-01-11T17:15:04.033Z,43.83
2018-01-11T17:17:32.264Z,44.17
2018-01-11T17:19:59.746Z,45.87
2018-01-11T17:22:27.212Z,43.53
2018-01-11T17:24:54.697Z,45.63
2018-01-11T17:27:22.936Z,47.97
2018-01-11T17:29:50.409Z,47.03
2018-01-11T17:32:17.889Z,46.90
2018-01-11T17:34:46.127Z,43.13
2018-01-11T17:37:13.609Z,51.23
2018-01-11T17:39:41.081Z,51.90
2018-01-11T17:42:09.334Z,55.30
2018-01-11T17:44:36.809Z,57.33
2018-01-11T17:47:05.053Z,53.53
2018-01-11T17:49:32.528Z,57.60
2018-01-11T17:52:00.001Z,51.30
2018-01-11T17:54:28.255Z,49.07
2018-01-11T17:56:55.733Z,53.63
2018-01-11T17:59:23.972Z,52.17
2018-01-11T18:01:51.439Z,52.60
2018-01-11T18:04:18.921Z,47.47
2018-01-11T18:06:46.392Z,46.60
2018-01-11T18:09:14.653Z,47.10
2018-01-11T18:11:42.133Z,51.93
2018-01-11T18:14:10.369Z,47.50
2018-01-11T18:16:37.844Z,48.03
2018-01-11T18:19:05.328Z,46.97
2018-01-11T18:21:33.572Z,54.97
2018-01-11T18:24:01.041Z,52.53
2018-01-11T18:26:28.512Z,48.10
2018-01-11T18:28:56.753Z,52.60
2018-01-11T18:31:24.489Z,48.83
2018-01-11T18:33:51.956Z,48.07
2018-01-11T18:36:19.433Z,48.03
2018-01-11T18:38:46.917Z,49.73
2018-01-11T18:41:14.386Z,45.63
2018-01-11T18:43:42.634Z,54.37
2018-01-11T18:46:10.113Z,52.43
2018-01-11T18:48:38.364Z,53.97
2018-01-11T18:51:05.836Z,56.13
2018-01-11T18:53:33.329Z,51.40
2018-01-11T18:56:00.796Z,49.67
2018-01-11T18:58:28.268Z,50.57
2018-01-11T19:00:55.744Z,51.70
2018-01-11T19:03:23.221Z,58.77
2018-01-11T19:05:50.705Z,53.20
2018-01-11T19:08:18.994Z,59.47
2018-01-11T19:10:47.228Z,55.03
2018-01-11T19:13:14.696Z,60.73
2018-01-11T19:15:42.173Z,55.87
2018-01-11T19:18:10.425Z,52.47
2018-01-11T19:20:37.905Z,58.23
2018-01-11T19:23:06.430Z,60.07
2018-01-11T19:25:33.900Z,59.00
2018-01-11T19:28:01.380Z,60.80
2018-01-11T19:30:28.853Z,61.23
2018-01-11T19:32:56.328Z,64.93
2018-01-11T19:35:24.560Z,60.80
2018-01-11T19:37:52.037Z,62.80
2018-01-11T19:40:19.500Z,69.27
2018-01-11T19:42:46.976Z,59.50
2018-01-11T19:45:15.214Z,64.00
2018-01-11T19:47:42.680Z,62.87
2018-01-11T19:50:10.161Z,64.90
2018-01-11T19:52:37.634Z,61.70
2018-01-11T19:55:05.876Z,68.47
2018-01-11T19:57:33.348Z,66.07
2018-01-11T20:00:01.177Z,62.50
2018-01-11T20:02:28.664Z,61.80
2018-01-11T20:04:56.191Z,60.40
2018-01-11T20:07:23.661Z,71.03
2018-01-11T20:09:51.132Z,63.63
2018-01-11T20:12:18.608Z,64.03
2018-01-11T20:14:46.081Z,67.03
2018-01-11T20:17:14.379Z,71.73
2018-01-11T20:19:41.852Z,73.50
2018-01-11T20:22:09.328Z,62.83
2018-01-11T20:24:36.801Z,69.07
2018-01-11T20:27:04.331Z,55.80
2018-01-11T20:29:31.805Z,54.00
2018-01-11T20:31:59.323Z,47.43
2018-01-11T20:34:26.788Z,37.10
2018-01-11T20:36:54.268Z,33.80
2018-01-11T20:39:21.780Z,31.63
2018-01-11T20:41:49.245Z,29.50
2018-01-11T20:44:17.492Z,31.17
2018-01-11T20:46:45.011Z,36.63
2018-01-11T20:49:13.221Z,33.53
2018-01-11T20:51:40.693Z,35.33
2018-01-11T20:54:08.214Z,37.90
2018-01-11T20:56:35.684Z,39.37
2018-01-11T20:59:03.165Z,41.50
2018-01-11T21:01:30.636Z,63.27
2018-01-11T21:03:58.112Z,77.77
2018-01-11T21:06:26.348Z,95.53
2018-01-11T21:08:53.845Z,87.90
2018-01-11T21:11:21.329Z,73.43
2018-01-11T21:13:48.800Z,74.80
2018-01-11T21:16:16.280Z,77.23
2018-01-11T21:18:44.024Z,77.77
2018-01-11T21:21:11.540Z,78.33
2018-01-11T21:23:39.772Z,80.93
2018-01-11T21:26:07.257Z,90.13
2018-01-11T21:28:34.727Z,86.63
2018-01-11T21:31:03.010Z,86.23
2018-01-11T21:33:31.241Z,89.40
2018-01-11T21:35:58.724Z,85.23
2018-01-11T21:38:26.192Z,84.30
2018-01-11T21:40:54.437Z,91.83
2018-01-11T21:43:21.962Z,88.30
2018-01-11T21:45:49.425Z,84.37
2018-01-11T21:48:16.909Z,89.13
2018-01-11T21:50:44.388Z,87.23
2018-01-11T21:53:12.112Z,80.10
2018-01-11T21:55:39.584Z,88.53
2018-01-11T21:58:07.069Z,94.23
2018-01-11T22:00:34.553Z,96.63
2018-01-11T22:03:02.801Z,91.33
2018-01-11T22:05:30.268Z,102.27
2018-01-11T22:07:57.757Z,90.93
2018-01-11T22:10:25.246Z,97.10
2018-01-11T22:12:52.754Z,95.87
2018-01-11T22:15:20.230Z,87.60
2018-01-11T22:17:48.464Z,88.13
2018-01-11T22:20:15.945Z,88.43
2018-01-11T22:22:43.461Z,88.03
2018-01-11T22:25:10.909Z,86.77
2018-01-11T22:27:38.378Z,89.90
2018-01-11T22:30:05.865Z,82.00
2018-01-11T22:32:34.849Z,93.43
2018-01-11T22:35:02.320Z,91.33
2018-01-11T22:37:29.788Z,92.73
2018-01-11T22:39:58.040Z,96.70
2018-01-11T22:42:25.509Z,93.77
2018-01-11T22:44:52.982Z,106.17
2018-01-11T22:47:21.229Z,99.57
2018-01-11T22:49:48.705Z,101.07
2018-01-11T22:52:16.185Z,85.37
2018-01-11T22:54:44.424Z,102.57
2018-01-11T22:57:11.909Z,103.47
2018-01-11T22:59:40.157Z,110.47
2018-01-11T23:02:07.645Z,126.10
2018-01-11T23:04:35.116Z,123.00
2018-01-11T23:07:03.357Z,111.60
2018-01-11T23:09:30.842Z,113.00
2018-01-11T23:11:59.087Z,125.87
2018-01-11T23:14:26.566Z,130.53
2018-01-11T23:16:54.040Z,116.97
2018-01-11T23:19:22.290Z,117.67
2018-01-11T23:21:49.772Z,119.33
2018-01-11T23:24:18.017Z,118.67
2018-01-11T23:26:45.500Z,110.70
2018-01-11T23:29:12.992Z,123.10
2018-01-11T23:31:40.466Z,127.27
2018-01-11T23:34:07.945Z,127.23
2018-01-11T23:36:35.417Z,129.70
2018-01-11T23:39:02.892Z,129.03
2018-01-11T23:41:30.368Z,119.33
2018-01-11T23:43:57.840Z,124.53
2018-01-11T23:46:25.339Z,115.23
2018-01-11T23:48:52.808Z,118.27
2018-01-11T23:51:20.288Z,137.27
2018-01-11T23:53:48.529Z,125.30
2018-01-11T23:56:16.010Z,123.87
2018-01-11T23:58:43.484Z,119.03
